Time;durP1;ratioP1;P1;durP2;ratioP2;P2;SDS_P1;SDS_P2;PMS_P1;PMS_P2;Temp;Humidity;BMP_temperature;BMP_pressure;BME280_temperature;BME280_humidity;BME280_pressure;Samples;Min_cycle;Max_cycle;Signal;HPM_P1;HPM_P2
2020/12/22 00:01:16;;;;;;;17.65;16.45;;;6.30;87.10;;;;;;4992227;29;20408;-74
2020/12/22 00:03:48;;;;;;;17.52;16.33;;;6.30;87.30;;;;;;4994539;29;20069;-74
2020/12/22 00:06:24;;;;;;;18.10;16.80;;;6.30;86.50;;;;;;4993662;29;20066;-74
2020/12/22 00:08:55;;;;;;;18.27;16.98;;;6.30;87.50;;;;;;4991169;29;20142;-74
2020/12/22 00:11:27;;;;;;;18.38;17.08;;;6.30;87.90;;;;;;4991951;29;20038;-74
2020/12/22 00:13:58;;;;;;;18.42;17.08;;;6.30;86.60;;;;;;4994345;29;20152;-75
2020/12/22 00:16:37;;;;;;;18.25;16.95;;;6.30;87.40;;;;;;4991899;29;20446;-74
2020/12/22 00:19:08;;;;;;;18.10;16.88;;;6.30;87.80;;;;;;4993700;29;20050;-74
2020/12/22 00:21:39;;;;;;;17.95;16.60;;;6.30;88.00;;;;;;4992618;29;20106;-74
2020/12/22 00:24:11;;;;;;;17.88;16.67;;;6.30;87.80;;;;;;5005873;29;20066;-74
2020/12/22 00:26:48;;;;;;;17.77;16.40;;;6.30;88.00;;;;;;4992368;29;20049;-74
2020/12/22 00:29:20;;;;;;;17.80;16.60;;;6.30;87.10;;;;;;4992346;29;20118;-74
2020/12/22 00:31:55;;;;;;;18.40;17.10;;;6.30;87.60;;;;;;4992840;29;20041;-74
2020/12/22 00:34:28;;;;;;;18.13;16.92;;;6.40;87.30;;;;;;4992632;29;20042;-74
2020/12/22 00:37:03;;;;;;;17.85;16.65;;;6.40;87.20;;;;;;4992379;29;20046;-74
2020/12/22 00:39:35;;;;;;;18.85;17.45;;;6.40;86.80;;;;;;4991925;29;20114;-74
2020/12/22 00:42:07;;;;;;;17.88;16.67;;;6.40;87.30;;;;;;4991719;29;20054;-73
2020/12/22 00:44:38;;;;;;;18.58;17.27;;;6.40;86.50;;;;;;4992203;29;20982;-73
2020/12/22 00:47:11;;;;;;;18.00;16.80;;;6.50;86.70;;;;;;4990282;29;20054;-73
2020/12/22 00:49:43;;;;;;;18.65;17.15;;;6.50;86.90;;;;;;4992845;29;20050;-74
2020/12/22 00:52:15;;;;;;;18.10;16.83;;;6.50;86.20;;;;;;4997675;29;20111;-73
2020/12/22 00:54:47;;;;;;;18.30;17.10;;;6.60;86.10;;;;;;5008679;29;20050;-73
2020/12/22 00:57:19;;;;;;;18.15;16.85;;;6.50;87.80;;;;;;4999789;29;20041;-74
2020/12/22 01:00:10;;;;;;;18.13;16.83;;;6.50;87.50;;;;;;4999699;29;20088;-74
2020/12/22 01:02:42;;;;;;;19.08;17.67;;;6.60;87.40;;;;;;4996399;29;20052;-74
2020/12/22 01:05:13;;;;;;;19.20;17.70;;;6.60;87.90;;;;;;4991831;29;20050;-74
2020/12/22 01:07:45;;;;;;;19.08;17.75;;;6.60;88.20;;;;;;4993844;29;20155;-72
2020/12/22 01:10:17;;;;;;;18.90;17.60;;;6.60;88.60;;;;;;4991014;29;20111;-74
2020/12/22 01:12:49;;;;;;;18.33;17.13;;;6.60;88.70;;;;;;4992818;29;20070;-73
2020/12/22 01:15:21;;;;;;;18.98;17.67;;;6.60;88.70;;;;;;4992270;29;20057;-73
2020/12/22 01:17:52;;;;;;;19.73;18.33;;;6.60;89.20;;;;;;4993027;29;20046;-75
2020/12/22 01:20:24;;;;;;;19.00;17.70;;;6.60;88.90;;;;;;4991927;29;20054;-74
2020/12/22 01:22:55;;;;;;;19.35;17.85;;;6.60;89.10;;;;;;4993130;29;20057;-74
2020/12/22 01:25:27;;;;;;;18.73;17.42;;;6.60;89.50;;;;;;4991209;29;20687;-74
2020/12/22 01:27:59;;;;;;;19.30;17.90;;;6.70;89.50;;;;;;4988917;29;20054;-74
2020/12/22 01:30:31;;;;;;;19.50;18.08;;;6.70;89.30;;;;;;4991412;29;20119;-74
2020/12/22 01:33:05;;;;;;;19.00;17.70;;;6.70;88.90;;;;;;4989088;29;20054;-74
2020/12/22 01:35:36;;;;;;;19.58;18.17;;;6.80;89.40;;;;;;4990427;29;20071;-74
2020/12/22 01:38:08;;;;;;;19.20;17.90;;;6.80;89.70;;;;;;4990534;29;20397;-74
2020/12/22 01:40:47;;;;;;;18.80;17.50;;;6.80;89.70;;;;;;4987418;29;20042;-74
2020/12/22 01:43:19;;;;;;;19.63;18.23;;;6.80;89.20;;;;;;4990961;29;20115;-73
2020/12/22 01:45:50;;;;;;;19.08;17.77;;;6.80;88.70;;;;;;4989747;29;20077;-74
2020/12/22 01:48:22;;;;;;;19.83;18.50;;;6.80;88.40;;;;;;4991324;29;20054;-72
2020/12/22 01:50:54;;;;;;;19.05;17.75;;;6.80;88.20;;;;;;4991164;29;20050;-73
2020/12/22 01:53:25;;;;;;;19.02;17.73;;;6.90;88.80;;;;;;4990674;29;20574;-73
2020/12/22 01:55:57;;;;;;;19.50;18.20;;;6.80;89.40;;;;;;4989449;29;20737;-73
2020/12/22 01:58:28;;;;;;;19.10;17.80;;;6.80;88.70;;;;;;4997013;29;20129;-74
2020/12/22 02:01:00;;;;;;;19.63;18.20;;;6.90;88.40;;;;;;4992594;29;20042;-73
2020/12/22 02:03:31;;;;;;;19.15;17.65;;;6.90;88.70;;;;;;4977037;29;20052;-74
2020/12/22 02:06:03;;;;;;;19.15;17.85;;;6.90;88.50;;;;;;4991235;29;20074;-73
2020/12/22 02:08:34;;;;;;;19.67;18.27;;;6.90;87.90;;;;;;4992977;29;20050;-73
2020/12/22 02:11:06;;;;;;;19.77;18.38;;;6.90;87.90;;;;;;4990192;29;20047;-74
2020/12/22 02:13:37;;;;;;;19.90;18.40;;;7.00;88.40;;;;;;4991170;29;20050;-73
2020/12/22 02:16:10;;;;;;;20.02;18.63;;;6.90;88.60;;;;;;4990863;29;20046;-74
2020/12/22 02:18:42;;;;;;;19.60;18.30;;;7.00;89.70;;;;;;4989337;29;20043;-74
2020/12/22 02:21:13;;;;;;;19.83;18.45;;;6.90;88.70;;;;;;4992089;29;20042;-75
2020/12/22 02:23:48;;;;;;;19.77;18.48;;;6.90;89.30;;;;;;4991624;29;20054;-75
2020/12/22 02:26:21;;;;;;;19.48;18.08;;;7.00;89.30;;;;;;4990369;29;20055;-75
2020/12/22 02:28:54;;;;;;;20.05;18.65;;;7.00;88.80;;;;;;4991005;29;20049;-75
2020/12/22 02:31:26;;;;;;;19.88;18.33;;;7.00;88.30;;;;;;4991046;29;20544;-74
2020/12/22 02:33:57;;;;;;;19.77;18.38;;;7.10;87.70;;;;;;4992206;29;20070;-75
2020/12/22 02:36:29;;;;;;;19.25;17.88;;;7.10;87.70;;;;;;4993055;29;20649;-75
2020/12/22 02:39:01;;;;;;;19.40;17.95;;;7.10;87.90;;;;;;4996242;29;20051;-74
2020/12/22 02:41:32;;;;;;;19.40;18.10;;;7.10;88.10;;;;;;4993877;29;20121;-75
2020/12/22 02:44:04;;;;;;;19.90;18.50;;;7.10;88.00;;;;;;5002997;29;20061;-75
2020/12/22 02:46:35;;;;;;;19.75;18.35;;;7.10;88.60;;;;;;4992158;29;20062;-73
2020/12/22 02:49:07;;;;;;;19.23;17.92;;;7.10;88.60;;;;;;4995923;29;20046;-74
2020/12/22 02:51:38;;;;;;;19.77;18.38;;;7.10;88.30;;;;;;4994688;29;20058;-74
2020/12/22 02:54:10;;;;;;;19.85;18.45;;;7.00;89.00;;;;;;4994836;29;20129;-73
2020/12/22 02:56:41;;;;;;;19.95;18.55;;;7.00;88.30;;;;;;4994007;29;20042;-74
2020/12/22 02:59:13;;;;;;;20.80;19.20;;;7.00;88.70;;;;;;4995271;29;20054;-74
2020/12/22 03:01:44;;;;;;;20.80;18.92;;;7.00;88.40;;;;;;4995580;29;20529;-74
2020/12/22 03:04:16;;;;;;;19.70;18.40;;;7.00;88.10;;;;;;4995540;29;20046;-75
2020/12/22 03:06:47;;;;;;;20.85;19.35;;;7.00;88.30;;;;;;4992778;29;20053;-75
2020/12/22 03:09:18;;;;;;;19.92;18.58;;;7.00;89.00;;;;;;4994096;29;20521;-74
2020/12/22 03:11:50;;;;;;;20.02;18.63;;;7.00;89.10;;;;;;4992950;29;20115;-74
2020/12/22 03:14:21;;;;;;;20.30;18.90;;;6.90;88.00;;;;;;4996934;29;20398;-74
2020/12/22 03:16:53;;;;;;;20.17;18.77;;;7.00;88.80;;;;;;4994152;29;20045;-75
2020/12/22 03:19:24;;;;;;;19.77;18.38;;;7.00;88.40;;;;;;4994693;29;20049;-74
2020/12/22 03:21:56;;;;;;;20.20;18.80;;;7.00;89.20;;;;;;4992661;29;20086;-74
2020/12/22 03:24:27;;;;;;;20.50;19.10;;;7.00;89.20;;;;;;4994805;29;20042;-74
2020/12/22 03:26:59;;;;;;;20.00;18.60;;;7.00;89.20;;;;;;4993158;29;20459;-75
2020/12/22 03:29:30;;;;;;;20.25;18.85;;;7.00;89.50;;;;;;4993495;29;20050;-74
2020/12/22 03:32:01;;;;;;;20.38;18.98;;;7.00;89.10;;;;;;4991998;29;20046;-74
2020/12/22 03:34:33;;;;;;;20.45;19.05;;;7.10;88.80;;;;;;5000859;29;20141;-75
2020/12/22 03:37:04;;;;;;;20.40;19.00;;;7.10;89.50;;;;;;4991001;29;20505;-74
2020/12/22 03:39:36;;;;;;;20.10;18.70;;;7.10;89.40;;;;;;4993491;29;20054;-74
2020/12/22 03:42:07;;;;;;;20.85;19.45;;;7.10;89.50;;;;;;4992270;29;20058;-74
2020/12/22 03:44:38;;;;;;;20.70;19.20;;;7.10;89.50;;;;;;4995618;29;20082;-74
2020/12/22 03:47:11;;;;;;;20.92;19.42;;;7.20;90.10;;;;;;4990095;29;20148;-74
2020/12/22 03:49:42;;;;;;;20.55;19.15;;;7.20;89.50;;;;;;4993294;29;20462;-74
2020/12/22 03:52:14;;;;;;;21.15;19.65;;;7.20;89.60;;;;;;4996107;29;20501;-74
2020/12/22 03:54:45;;;;;;;21.10;19.60;;;7.30;90.20;;;;;;4993100;29;20065;-73
2020/12/22 03:57:18;;;;;;;21.05;19.60;;;7.30;89.80;;;;;;4991376;29;20058;-73
2020/12/22 03:59:49;;;;;;;20.95;19.45;;;7.30;90.90;;;;;;4992421;29;20103;-73
2020/12/22 04:02:21;;;;;;;21.42;19.92;;;7.30;90.00;;;;;;4998345;29;20099;-74
2020/12/22 04:04:52;;;;;;;21.30;19.80;;;7.40;90.50;;;;;;4993021;29;20050;-73
2020/12/22 04:07:24;;;;;;;22.00;20.40;;;7.40;92.50;;;;;;4960082;29;20284;-74
2020/12/22 04:09:55;;;;;;;21.48;19.98;;;7.40;91.70;;;;;;4993850;29;20106;-74
2020/12/22 04:12:26;;;;;;;22.60;20.83;;;7.40;90.40;;;;;;4990150;29;20083;-74
2020/12/22 04:14:58;;;;;;;21.75;20.25;;;7.40;90.40;;;;;;4989824;29;20050;-74
2020/12/22 04:17:30;;;;;;;21.38;19.73;;;7.40;89.50;;;;;;4989621;29;20049;-74
2020/12/22 04:20:02;;;;;;;21.02;19.58;;;7.40;89.80;;;;;;4992625;29;20046;-74
2020/12/22 04:22:33;;;;;;;21.35;19.85;;;7.40;90.60;;;;;;4988704;29;20146;-74
2020/12/22 04:25:05;;;;;;;21.52;20.02;;;7.40;88.70;;;;;;4991873;29;20133;-74
2020/12/22 04:27:36;;;;;;;21.73;20.17;;;7.40;88.80;;;;;;4991356;29;20814;-74
2020/12/22 04:30:08;;;;;;;21.38;19.88;;;7.30;88.80;;;;;;4989660;29;20058;-74
2020/12/22 04:32:39;;;;;;;21.50;19.90;;;7.40;90.00;;;;;;4988593;29;20046;-74
2020/12/22 04:35:11;;;;;;;21.10;19.60;;;7.40;90.30;;;;;;5006642;29;20038;-74
2020/12/22 04:37:42;;;;;;;21.30;19.80;;;7.40;90.90;;;;;;4991826;29;20049;-72
2020/12/22 04:40:14;;;;;;;20.45;19.05;;;7.50;89.80;;;;;;4994482;29;20046;-73
2020/12/22 04:42:48;;;;;;;21.30;19.80;;;7.50;91.80;;;;;;4993265;29;20057;-74
2020/12/22 04:45:20;;;;;;;21.48;19.98;;;7.60;90.80;;;;;;4993144;29;20509;-73
2020/12/22 04:47:53;;;;;;;21.67;20.17;;;7.60;92.10;;;;;;4995411;29;20053;-74
2020/12/22 04:50:24;;;;;;;21.42;19.85;;;7.60;91.60;;;;;;4992855;29;20061;-73
2020/12/22 04:52:56;;;;;;;21.15;19.65;;;7.60;91.80;;;;;;4992524;29;20049;-73
2020/12/22 04:55:28;;;;;;;21.27;19.77;;;7.60;91.20;;;;;;4992159;29;20042;-73
2020/12/22 04:57:59;;;;;;;21.42;19.92;;;7.70;92.30;;;;;;4992518;29;20471;-74
2020/12/22 05:00:31;;;;;;;22.30;20.70;;;7.70;92.70;;;;;;4961891;29;20073;-74
2020/12/22 05:03:05;;;;;;;22.10;20.50;;;7.70;91.60;;;;;;4991194;29;20050;-76
2020/12/22 05:05:40;;;;;;;21.45;19.90;;;7.80;92.70;;;;;;4993085;29;20474;-76
2020/12/22 05:08:12;;;;;;;21.85;20.20;;;7.70;92.80;;;;;;4991430;29;20046;-75
2020/12/22 05:10:44;;;;;;;21.92;20.33;;;7.70;92.20;;;;;;4990503;29;20573;-76
2020/12/22 05:13:17;;;;;;;21.45;19.90;;;7.80;92.80;;;;;;4992484;29;20046;-76
2020/12/22 05:15:51;;;;;;;21.70;20.20;;;7.80;92.40;;;;;;4993666;29;20125;-76
2020/12/22 05:18:23;;;;;;;21.95;20.45;;;7.90;92.80;;;;;;4991314;29;20122;-75
2020/12/22 05:20:56;;;;;;;21.55;20.05;;;7.90;91.80;;;;;;4999464;29;20593;-76
2020/12/22 05:23:29;;;;;;;22.50;20.90;;;7.90;92.60;;;;;;4992399;29;20474;-76
2020/12/22 05:26:00;;;;;;;22.65;21.05;;;8.00;92.20;;;;;;4992040;29;20038;-76
2020/12/22 05:28:32;;;;;;;22.83;20.83;;;8.00;91.90;;;;;;4991958;29;20130;-75
2020/12/22 05:31:13;;;;;;;22.27;20.67;;;8.00;90.70;;;;;;4989107;29;20072;-76
2020/12/22 05:33:45;;;;;;;22.20;20.60;;;7.90;90.60;;;;;;4990993;29;20106;-76
2020/12/22 05:36:18;;;;;;;22.77;21.17;;;7.90;92.20;;;;;;4990410;29;20413;-76
2020/12/22 05:38:51;;;;;;;21.75;20.25;;;8.00;91.20;;;;;;4987326;29;20057;-76
2020/12/22 05:41:23;;;;;;;21.92;20.33;;;8.10;91.20;;;;;;4990245;29;20513;-76
2020/12/22 05:43:54;;;;;;;22.50;20.80;;;8.10;90.60;;;;;;4990960;29;20914;-76
2020/12/22 05:46:30;;;;;;;22.75;21.15;;;8.10;91.00;;;;;;4991361;29;20057;-75
2020/12/22 05:49:03;;;;;;;21.75;20.15;;;8.20;91.10;;;;;;4998904;29;20133;-75
2020/12/22 05:51:47;;;;;;;22.42;20.83;;;8.20;89.70;;;;;;4989248;29;20050;-74
2020/12/22 05:54:18;;;;;;;20.98;19.48;;;8.30;89.60;;;;;;4990305;29;20168;-76
2020/12/22 05:56:50;;;;;;;21.48;19.98;;;8.30;89.10;;;;;;4990729;29;20077;-77
2020/12/22 05:59:22;;;;;;;21.00;19.50;;;8.50;87.50;;;;;;4979070;29;20145;-76
2020/12/22 06:01:55;;;;;;;20.40;18.98;;;8.60;86.40;;;;;;4989986;29;20058;-76
2020/12/22 06:04:29;;;;;;;20.55;19.05;;;8.60;87.30;;;;;;4995191;29;20057;-75
2020/12/22 06:07:02;;;;;;;20.10;18.70;;;8.60;87.60;;;;;;4993090;29;20062;-76
2020/12/22 06:09:34;;;;;;;20.65;19.15;;;8.60;88.40;;;;;;4994902;29;20058;-75
2020/12/22 06:12:08;;;;;;;20.95;19.45;;;8.60;87.90;;;;;;4992498;29;20050;-75
2020/12/22 06:14:46;;;;;;;20.85;19.35;;;8.50;87.80;;;;;;5009799;29;20054;-75
2020/12/22 06:17:19;;;;;;;21.10;19.55;;;8.50;87.70;;;;;;4991362;29;20052;-77
2020/12/22 06:19:50;;;;;;;21.05;19.55;;;8.50;86.90;;;;;;4992233;29;20050;-77
2020/12/22 06:22:22;;;;;;;20.27;18.88;;;8.50;86.50;;;;;;4991155;29;20059;-77
2020/12/22 06:24:53;;;;;;;20.20;18.80;;;8.60;86.20;;;;;;5003772;29;20058;-77
2020/12/22 06:27:32;;;;;;;20.30;18.90;;;8.60;86.30;;;;;;4988447;29;20046;-77
2020/12/22 06:30:03;;;;;;;20.80;19.40;;;8.70;84.90;;;;;;4991255;29;20066;-77
2020/12/22 06:32:36;;;;;;;19.98;18.58;;;8.70;85.50;;;;;;4985492;29;20054;-77
2020/12/22 06:35:30;;;;;;;20.05;18.65;;;8.70;85.30;;;;;;4992373;29;20054;-77
2020/12/22 06:38:02;;;;;;;20.52;19.13;;;8.70;86.00;;;;;;4991060;29;20099;-78
2020/12/22 06:41:01;;;;;;;20.52;19.13;;;8.70;86.20;;;;;;4990845;29;20505;-77
2020/12/22 06:43:43;;;;;;;21.10;19.60;;;8.60;85.50;;;;;;4990308;29;20675;-77
2020/12/22 06:46:32;;;;;;;21.63;20.13;;;8.60;86.80;;;;;;4992553;29;20499;-77
2020/12/22 06:49:07;;;;;;;28.67;26.02;;;8.60;85.40;;;;;;4991131;29;20418;-77
2020/12/22 06:51:43;;;;;;;20.90;19.40;;;8.60;85.40;;;;;;4990117;29;20122;-77
2020/12/22 06:54:14;;;;;;;22.35;20.75;;;8.60;85.50;;;;;;4988669;29;20045;-78
2020/12/22 06:56:47;;;;;;;21.52;19.92;;;8.60;85.30;;;;;;4990920;29;20062;-77
2020/12/22 06:59:42;;;;;;;21.13;19.63;;;8.60;85.40;;;;;;4991506;29;20046;-76
2020/12/22 07:02:36;;;;;;;20.85;19.35;;;8.60;85.40;;;;;;4989507;29;20095;-76
2020/12/22 07:05:08;;;;;;;20.15;18.75;;;8.60;85.40;;;;;;4991910;29;20041;-76
2020/12/22 07:07:59;;;;;;;20.90;19.40;;;8.50;85.10;;;;;;4989023;29;20095;-77
2020/12/22 07:10:36;;;;;;;20.42;19.02;;;8.50;85.00;;;;;;4993861;29;20041;-76
2020/12/22 07:13:09;;;;;;;20.38;18.98;;;8.50;85.30;;;;;;4994941;29;20042;-76
2020/12/22 07:15:50;;;;;;;19.17;17.73;;;8.50;85.20;;;;;;4992508;29;20412;-76
2020/12/22 07:18:30;;;;;;;18.65;17.25;;;8.40;85.70;;;;;;4993568;29;20475;-75
2020/12/22 07:21:02;;;;;;;19.65;18.25;;;8.30;86.10;;;;;;4991717;29;20046;-77
2020/12/22 07:23:35;;;;;;;18.80;17.33;;;8.30;86.70;;;;;;5009878;29;20058;-77
2020/12/22 07:26:10;;;;;;;19.10;17.70;;;8.30;86.00;;;;;;4992629;29;20057;-77
2020/12/22 07:28:42;;;;;;;18.00;16.70;;;8.30;86.20;;;;;;4995282;29;20516;-76
2020/12/22 07:31:18;;;;;;;18.88;17.58;;;8.30;86.00;;;;;;4995916;29;20355;-76
2020/12/22 07:33:54;;;;;;;24.05;22.10;;;8.20;86.70;;;;;;5009516;29;20060;-75
2020/12/22 07:36:25;;;;;;;22.25;20.45;;;8.30;85.80;;;;;;4998254;29;20553;-74
2020/12/22 07:39:17;;;;;;;19.02;17.63;;;8.20;85.40;;;;;;4995525;29;20042;-73
2020/12/22 07:41:52;;;;;;;18.92;17.52;;;8.20;86.30;;;;;;4996433;29;20066;-75
2020/12/22 07:44:24;;;;;;;18.95;17.65;;;8.30;86.20;;;;;;4994903;29;20050;-76
2020/12/22 07:46:56;;;;;;;19.02;17.63;;;8.20;86.30;;;;;;4994115;29;20208;-73
2020/12/22 07:49:27;;;;;;;19.83;18.33;;;8.30;85.90;;;;;;4995276;29;20050;-73
2020/12/22 07:51:59;;;;;;;18.98;17.58;;;8.30;86.10;;;;;;4996475;29;20049;-73
2020/12/22 07:54:31;;;;;;;19.52;18.02;;;8.30;85.90;;;;;;4995019;29;20046;-73
2020/12/22 07:57:02;;;;;;;18.92;17.42;;;8.30;85.80;;;;;;4994495;29;20042;-74
2020/12/22 07:59:35;;;;;;;19.00;17.60;;;8.30;86.10;;;;;;5010911;29;20057;-73
2020/12/22 08:02:07;;;;;;;18.45;17.15;;;8.30;86.30;;;;;;4980908;29;20046;-73
2020/12/22 08:04:38;;;;;;;18.98;17.58;;;8.30;87.00;;;;;;4996733;29;20060;-73
2020/12/22 08:07:10;;;;;;;18.70;17.33;;;8.30;87.40;;;;;;4978004;29;20680;-73
2020/12/22 08:09:42;;;;;;;18.40;17.00;;;8.40;87.10;;;;;;4994789;29;20050;-75
2020/12/22 08:12:13;;;;;;;19.27;17.88;;;8.40;87.50;;;;;;4992938;29;20061;-73
2020/12/22 08:14:45;;;;;;;18.80;17.50;;;8.40;87.20;;;;;;4981571;29;20048;-75
2020/12/22 08:17:19;;;;;;;18.00;16.70;;;8.40;87.60;;;;;;4979217;29;20155;-73
2020/12/22 08:19:51;;;;;;;18.70;17.30;;;8.50;88.10;;;;;;4994861;29;20140;-75
2020/12/22 08:22:23;;;;;;;18.58;17.27;;;8.60;87.50;;;;;;4993312;29;20046;-73
2020/12/22 08:24:55;;;;;;;18.83;17.42;;;8.60;87.90;;;;;;4996860;29;20095;-72
2020/12/22 08:27:26;;;;;;;18.77;17.48;;;8.70;87.70;;;;;;4994544;29;20050;-75
2020/12/22 08:29:58;;;;;;;18.90;17.40;;;8.70;87.40;;;;;;5006219;29;20414;-75
2020/12/22 08:32:30;;;;;;;19.75;18.27;;;8.80;87.00;;;;;;4993105;29;20042;-73
2020/12/22 08:35:01;;;;;;;18.75;17.25;;;8.80;87.40;;;;;;4997168;29;20038;-74
2020/12/22 08:37:35;;;;;;;19.48;17.98;;;8.80;86.50;;;;;;4991445;29;20050;-75
2020/12/22 08:40:07;;;;;;;19.10;17.70;;;8.80;85.10;;;;;;4993621;29;20392;-74
2020/12/22 08:42:47;;;;;;;18.42;17.08;;;8.70;84.40;;;;;;4991445;29;20113;-73
2020/12/22 08:45:18;;;;;;;19.08;17.67;;;8.60;84.90;;;;;;4995293;29;20050;-73
2020/12/22 08:47:51;;;;;;;18.35;17.00;;;8.60;84.80;;;;;;5000924;29;20631;-75
2020/12/22 08:50:22;;;;;;;18.10;16.80;;;8.50;85.50;;;;;;4990972;29;20077;-74
2020/12/22 08:52:54;;;;;;;18.00;16.70;;;8.50;84.60;;;;;;4994871;29;20046;-75
2020/12/22 08:55:26;;;;;;;18.48;17.15;;;8.60;85.00;;;;;;4992585;29;20050;-75
2020/12/22 08:58:04;;;;;;;18.05;16.70;;;8.60;84.30;;;;;;4991644;29;20050;-74
2020/12/22 09:00:35;;;;;;;19.15;17.75;;;8.70;85.00;;;;;;4991821;29;20119;-75
2020/12/22 09:03:09;;;;;;;19.00;17.60;;;8.80;85.10;;;;;;4992026;29;20076;-75
2020/12/22 09:05:50;;;;;;;19.17;17.77;;;8.80;84.60;;;;;;4995677;29;20050;-74
2020/12/22 09:08:21;;;;;;;;;;;8.90;84.60;;;;;;4990608;29;20050;-74
2020/12/22 09:10:53;;;;;;;19.20;17.80;;;8.90;84.00;;;;;;4990149;29;19929;-75
2020/12/22 09:13:24;;;;;;;18.90;17.50;;;9.00;84.10;;;;;;4981306;29;20049;-74
2020/12/22 09:15:56;;;;;;;18.08;16.77;;;9.00;84.30;;;;;;4993088;29;20636;-75
2020/12/22 09:18:27;;;;;;;19.27;17.85;;;9.10;84.50;;;;;;4994042;29;20102;-76
2020/12/22 09:21:06;;;;;;;21.17;19.42;;;9.10;84.10;;;;;;4989528;29;20452;-74
2020/12/22 09:23:44;;;;;;;18.58;17.27;;;9.10;84.00;;;;;;4991138;29;20069;-73
2020/12/22 09:26:16;;;;;;;18.80;17.40;;;9.20;83.90;;;;;;5006915;29;20062;-73
2020/12/22 09:28:48;;;;;;;18.63;17.33;;;9.20;84.10;;;;;;4995534;29;20057;-73
2020/12/22 09:31:24;;;;;;;19.45;18.00;;;9.30;83.50;;;;;;4990489;29;20054;-73
2020/12/22 09:33:55;;;;;;;20.05;18.65;;;9.40;83.80;;;;;;5005899;29;20050;-76
2020/12/22 09:36:27;;;;;;;19.15;17.75;;;9.50;83.70;;;;;;4977070;29;20050;-73
2020/12/22 09:38:58;;;;;;;19.10;17.70;;;9.50;82.50;;;;;;4989537;29;20126;-73
2020/12/22 09:41:30;;;;;;;19.25;17.85;;;9.60;83.70;;;;;;4992540;29;20549;-74
2020/12/22 09:44:02;;;;;;;19.55;18.10;;;9.70;83.40;;;;;;4996282;29;20102;-73
2020/12/22 09:46:33;;;;;;;19.17;17.70;;;9.70;83.40;;;;;;5003356;29;20123;-74
2020/12/22 09:49:05;;;;;;;19.23;17.77;;;9.80;81.80;;;;;;4989843;29;20057;-73
2020/12/22 09:51:37;;;;;;;18.60;17.30;;;9.80;83.20;;;;;;4991600;29;20421;-75
2020/12/22 09:54:19;;;;;;;19.38;17.98;;;9.90;83.50;;;;;;4993125;29;20066;-75
2020/12/22 09:56:51;;;;;;;18.40;17.05;;;9.90;82.20;;;;;;4995618;29;20098;-76
2020/12/22 09:59:22;;;;;;;19.15;17.75;;;10.00;80.30;;;;;;4993708;29;20898;-74
2020/12/22 10:01:55;;;;;;;18.52;17.13;;;10.20;79.00;;;;;;4991222;29;20475;-76
2020/12/22 10:04:27;;;;;;;17.98;16.67;;;10.20;78.90;;;;;;4993862;29;20057;-76
2020/12/22 10:07:01;;;;;;;19.02;17.63;;;10.30;79.10;;;;;;4989535;29;20046;-76
2020/12/22 10:09:33;;;;;;;18.95;17.55;;;10.40;75.90;;;;;;4991021;29;20413;-73
2020/12/22 10:12:04;;;;;;;18.08;16.77;;;10.60;75.80;;;;;;4991015;29;20046;-74
2020/12/22 10:14:37;;;;;;;18.00;16.70;;;10.70;75.70;;;;;;5006508;29;20141;-76
2020/12/22 10:17:08;;;;;;;18.25;16.95;;;10.80;76.70;;;;;;4992254;29;20074;-77
2020/12/22 10:19:40;;;;;;;18.35;17.05;;;10.90;74.90;;;;;;4988134;29;20046;-76
2020/12/22 10:22:11;;;;;;;17.15;15.95;;;11.00;74.10;;;;;;4995369;29;20038;-75
2020/12/22 10:24:42;;;;;;;17.35;16.15;;;11.20;70.50;;;;;;4991378;29;20049;-76
2020/12/22 10:27:14;;;;;;;17.77;16.48;;;11.30;72.10;;;;;;4991363;29;20053;-76
2020/12/22 10:29:46;;;;;;;16.98;15.77;;;11.30;70.40;;;;;;4992060;29;20046;-75
2020/12/22 10:32:17;;;;;;;17.67;16.48;;;11.30;70.40;;;;;;4988343;29;20049;-76
2020/12/22 10:34:50;;;;;;;17.35;16.15;;;11.40;69.80;;;;;;4991438;29;20531;-74
2020/12/22 10:37:22;;;;;;;17.10;15.90;;;11.40;69.60;;;;;;4990215;29;20058;-76
2020/12/22 10:39:53;;;;;;;17.20;16.00;;;11.40;70.60;;;;;;4991721;29;20046;-74
2020/12/22 10:42:25;;;;;;;17.58;16.38;;;11.50;71.80;;;;;;4990961;29;20070;-73
2020/12/22 10:44:58;;;;;;;18.55;17.25;;;11.60;70.30;;;;;;4990241;29;20139;-74
2020/12/22 10:47:30;;;;;;;17.35;16.15;;;11.70;70.10;;;;;;4988921;29;20050;-74
2020/12/22 10:50:02;;;;;;;17.20;16.00;;;11.80;68.20;;;;;;4993083;29;20127;-74
2020/12/22 10:52:33;;;;;;;17.60;16.40;;;11.90;69.60;;;;;;4991620;29;20042;-75
2020/12/22 10:55:04;;;;;;;17.60;16.40;;;12.00;67.30;;;;;;4996570;29;20074;-75
2020/12/22 10:57:37;;;;;;;17.45;16.25;;;12.10;66.30;;;;;;4995818;29;20057;-72
2020/12/22 11:00:09;;;;;;;17.58;16.38;;;12.20;65.70;;;;;;5011603;29;20046;-75
2020/12/22 11:02:41;;;;;;;16.58;15.38;;;12.20;67.00;;;;;;4995524;29;20465;-73
2020/12/22 11:05:13;;;;;;;17.02;15.82;;;12.20;64.80;;;;;;4992831;29;20131;-73
2020/12/22 11:07:50;;;;;;;16.52;15.43;;;12.30;64.70;;;;;;4994561;29;20050;-75
2020/12/22 11:10:22;;;;;;;16.77;15.57;;;12.30;65.70;;;;;;4998077;29;20050;-74
2020/12/22 11:12:53;;;;;;;16.52;15.43;;;12.30;65.50;;;;;;4998338;29;20042;-75
2020/12/22 11:15:25;;;;;;;17.02;15.82;;;12.20;65.10;;;;;;4992655;29;20053;-74
2020/12/22 11:17:56;;;;;;;17.02;15.75;;;12.20;65.00;;;;;;4995870;29;20057;-75
2020/12/22 11:20:28;;;;;;;16.90;15.70;;;12.30;65.00;;;;;;4996238;29;20569;-72
2020/12/22 11:22:59;;;;;;;16.67;15.57;;;12.30;65.50;;;;;;4995439;29;20053;-76
2020/12/22 11:25:31;;;;;;;16.95;15.75;;;12.30;64.60;;;;;;4994619;29;20056;-76
2020/12/22 11:28:03;;;;;;;17.50;16.25;;;12.40;64.40;;;;;;4979332;29;20046;-74
2020/12/22 11:30:34;;;;;;;17.23;16.02;;;12.50;66.00;;;;;;4995606;29;20049;-75
2020/12/22 11:33:06;;;;;;;17.27;16.08;;;12.50;66.30;;;;;;4993967;29;20068;-74
2020/12/22 11:35:37;;;;;;;17.75;16.55;;;12.50;64.00;;;;;;4994487;29;20042;-75
2020/12/22 11:38:09;;;;;;;17.45;16.25;;;12.50;64.70;;;;;;4991906;29;20045;-75
2020/12/22 11:40:40;;;;;;;16.70;15.50;;;12.50;65.00;;;;;;4999983;29;20042;-75
2020/12/22 11:43:12;;;;;;;17.80;16.50;;;12.50;63.40;;;;;;4990125;29;20111;-77
2020/12/22 11:45:43;;;;;;;17.58;16.38;;;12.50;64.40;;;;;;4989074;29;20077;-76
2020/12/22 11:48:15;;;;;;;17.40;16.10;;;12.50;64.00;;;;;;4982240;29;20065;-75
2020/12/22 11:50:46;;;;;;;17.73;16.52;;;12.40;63.00;;;;;;4992091;29;20058;-73
2020/12/22 11:53:18;;;;;;;17.23;16.02;;;12.50;64.10;;;;;;4982367;29;20455;-75
2020/12/22 11:55:52;;;;;;;17.30;16.10;;;12.60;63.30;;;;;;4991083;29;20046;-74
2020/12/22 11:58:23;;;;;;;17.27;16.08;;;12.60;64.10;;;;;;5001352;29;20764;-75
2020/12/22 12:00:55;;;;;;;17.23;16.02;;;12.70;64.70;;;;;;4992414;29;20042;-75
2020/12/22 12:03:26;;;;;;;17.00;15.80;;;12.70;64.10;;;;;;4990740;29;20046;-74
2020/12/22 12:05:57;;;;;;;16.92;15.73;;;12.60;63.80;;;;;;5002573;29;20042;-75
2020/12/22 12:08:29;;;;;;;16.95;15.75;;;12.60;65.40;;;;;;4979180;29;20050;-72
2020/12/22 12:11:00;;;;;;;17.40;16.20;;;12.70;64.50;;;;;;4988657;29;20541;-73
2020/12/22 12:13:32;;;;;;;17.48;16.20;;;12.70;63.70;;;;;;4985994;29;20082;-72
2020/12/22 12:16:04;;;;;;;17.52;16.33;;;12.70;64.50;;;;;;4991405;29;20065;-73
2020/12/22 12:18:36;;;;;;;16.88;15.68;;;12.80;63.00;;;;;;4998329;29;20068;-73
2020/12/22 12:21:08;;;;;;;17.60;16.40;;;12.80;62.40;;;;;;4989638;29;20160;-75
2020/12/22 12:23:40;;;;;;;17.38;16.17;;;12.80;63.50;;;;;;4992218;29;20042;-75
2020/12/22 12:26:13;;;;;;;17.02;15.82;;;12.90;64.00;;;;;;4996763;29;20049;-74
2020/12/22 12:28:44;;;;;;;17.52;16.33;;;12.90;63.60;;;;;;4994416;29;20728;-75
2020/12/22 12:31:17;;;;;;;17.48;16.27;;;13.00;60.50;;;;;;4989140;29;20062;-75
2020/12/22 12:33:48;;;;;;;17.65;16.25;;;13.00;61.20;;;;;;4992116;29;20050;-75
2020/12/22 12:36:20;;;;;;;17.35;16.15;;;13.10;62.10;;;;;;4986325;29;20046;-71
2020/12/22 12:38:52;;;;;;;17.05;15.85;;;13.10;61.50;;;;;;4998031;29;20058;-73
2020/12/22 12:41:25;;;;;;;16.88;15.68;;;13.20;61.30;;;;;;4990315;29;20050;-72
2020/12/22 12:43:56;;;;;;;17.67;16.48;;;13.10;62.20;;;;;;4999147;29;20050;-75
2020/12/22 12:46:28;;;;;;;16.80;15.60;;;13.00;60.90;;;;;;4975975;29;20099;-76
2020/12/22 12:48:59;;;;;;;17.33;16.13;;;13.00;61.40;;;;;;5000238;29;20045;-76
2020/12/22 12:51:31;;;;;;;17.40;16.20;;;13.00;60.90;;;;;;4992330;29;20047;-76
2020/12/22 12:54:03;;;;;;;16.77;15.68;;;13.00;61.30;;;;;;4981249;29;20057;-74
2020/12/22 12:56:35;;;;;;;17.50;16.15;;;12.90;61.30;;;;;;4989145;29;20138;-74
2020/12/22 12:59:06;;;;;;;17.13;15.93;;;12.90;60.40;;;;;;4991904;29;20073;-73
2020/12/22 13:01:38;;;;;;;16.10;15.00;;;12.90;61.40;;;;;;4993127;29;20046;-74
2020/12/22 13:04:11;;;;;;;15.95;14.85;;;13.00;61.90;;;;;;4990094;29;20096;-73